createdAt,value
2023-01-19T05:02:45.322Z,14.00
2023-01-19T05:05:13.082Z,13.75
2023-01-19T05:07:39.616Z,14.98
2023-01-19T05:10:06.807Z,14.57
2023-01-19T05:12:33.732Z,15.35
2023-01-19T05:15:01.472Z,15.10
2023-01-19T05:17:28.074Z,14.88
2023-01-19T05:19:54.519Z,15.82
2023-01-19T05:22:21.134Z,14.38
2023-01-19T05:24:47.668Z,14.88
2023-01-19T05:27:14.111Z,15.43
2023-01-19T05:29:40.599Z,14.70
2023-01-19T05:32:07.181Z,14.40
2023-01-19T05:34:33.698Z,14.65
2023-01-19T05:37:00.231Z,14.45
2023-01-19T05:39:26.743Z,14.57
2023-01-19T05:41:53.242Z,14.50
2023-01-19T05:44:19.716Z,14.20
2023-01-19T05:46:46.194Z,13.38
2023-01-19T05:49:12.809Z,14.05
2023-01-19T05:51:45.288Z,13.45
2023-01-19T05:54:15.176Z,13.52
2023-01-19T05:59:08.677Z,12.60
2023-01-19T06:01:38.796Z,13.73
2023-01-19T06:04:08.853Z,13.10
2023-01-19T06:06:35.388Z,13.35
2023-01-19T06:09:01.938Z,14.13
2023-01-19T06:11:28.562Z,12.75
2023-01-19T06:13:55.064Z,13.32
2023-01-19T06:16:21.575Z,13.50
2023-01-19T06:18:48.106Z,13.05
2023-01-19T06:21:14.752Z,13.82
2023-01-19T06:23:41.403Z,14.73
2023-01-19T06:26:07.995Z,13.43
2023-01-19T06:28:34.521Z,14.23
2023-01-19T06:31:01.130Z,14.35
2023-01-19T06:33:28.072Z,13.20
2023-01-19T06:35:55.217Z,12.32
2023-01-19T06:38:21.825Z,13.20
2023-01-19T06:40:58.312Z,12.00
2023-01-19T06:43:25.965Z,12.85
2023-01-19T06:45:52.528Z,12.73
2023-01-19T06:48:19.246Z,12.80
2023-01-19T06:50:45.958Z,12.63
2023-01-19T06:53:12.680Z,13.13
2023-01-19T06:55:39.276Z,13.63
2023-01-19T06:58:06.467Z,13.50
2023-01-19T07:00:33.060Z,12.32
2023-01-19T07:03:00.752Z,12.90
2023-01-19T07:05:27.692Z,12.18
2023-01-19T07:07:56.846Z,11.52
2023-01-19T07:10:24.772Z,12.07
2023-01-19T07:12:51.426Z,12.40
2023-01-19T07:15:22.473Z,12.75
2023-01-19T07:17:49.292Z,10.75
2023-01-19T07:20:15.976Z,11.82
2023-01-19T07:22:46.685Z,12.57
2023-01-19T07:25:14.046Z,12.20
2023-01-19T07:27:40.703Z,12.68
2023-01-19T07:30:08.626Z,13.07
2023-01-19T07:32:35.909Z,12.05
2023-01-19T07:35:02.622Z,12.52
2023-01-19T07:37:29.145Z,12.57
2023-01-19T07:39:55.671Z,13.30
2023-01-19T07:42:22.186Z,13.32
2023-01-19T07:44:48.664Z,12.38
2023-01-19T07:47:15.419Z,12.75
2023-01-19T07:49:42.461Z,14.13
2023-01-19T07:52:09.601Z,12.68
2023-01-19T07:54:36.157Z,13.48
2023-01-19T07:57:02.680Z,12.88
2023-01-19T07:59:30.337Z,12.57
2023-01-19T08:01:59.348Z,12.48
2023-01-19T08:04:27.070Z,12.77
2023-01-19T08:06:54.077Z,12.20
2023-01-19T08:09:20.596Z,12.10
2023-01-19T08:11:47.228Z,12.18
2023-01-19T08:14:13.851Z,12.05
2023-01-19T08:16:40.460Z,11.45
2023-01-19T08:19:06.973Z,12.13
2023-01-19T08:21:33.750Z,11.93
2023-01-19T08:24:00.253Z,11.93
2023-01-19T08:26:29.129Z,12.30
2023-01-19T08:28:57.848Z,12.07
2023-01-19T08:31:25.006Z,11.80
2023-01-19T08:33:51.980Z,11.40
2023-01-19T08:36:19.146Z,11.35
2023-01-19T08:38:46.140Z,11.88
2023-01-19T08:41:13.365Z,10.35
2023-01-19T08:43:40.033Z,11.95
2023-01-19T08:46:06.772Z,14.18
2023-01-19T08:48:33.588Z,12.95
2023-01-19T08:51:00.478Z,12.65
2023-01-19T08:53:27.286Z,12.93
2023-01-19T08:55:57.695Z,14.57
2023-01-19T08:58:24.274Z,22.67
2023-01-19T09:00:52.593Z,19.38
2023-01-19T09:03:20.841Z,11.55
2023-01-19T09:05:47.417Z,13.35
2023-01-19T09:08:14.502Z,14.32
2023-01-19T09:10:47.059Z,13.98
2023-01-19T09:13:14.239Z,19.05
2023-01-19T09:15:41.563Z,14.75
2023-01-19T09:18:14.773Z,17.92
2023-01-19T09:20:42.773Z,12.43
2023-01-19T09:23:13.175Z,12.38
2023-01-19T09:25:41.073Z,13.00
2023-01-19T09:28:09.420Z,12.13
2023-01-19T09:30:37.777Z,11.43
2023-01-19T09:33:11.016Z,11.32
2023-01-19T09:35:38.499Z,11.15
2023-01-19T09:38:07.408Z,12.15
2023-01-19T09:40:34.304Z,11.00
2023-01-19T09:43:12.283Z,11.93
2023-01-19T09:46:08.101Z,11.38
2023-01-19T09:48:46.302Z,11.45
2023-01-19T09:51:24.595Z,11.73
2023-01-19T09:54:05.208Z,11.60
2023-01-19T09:56:32.276Z,11.70
2023-01-19T09:58:59.607Z,13.15
2023-01-19T10:01:29.354Z,13.60
2023-01-19T10:06:32.532Z,11.98
2023-01-19T10:09:07.298Z,13.48
2023-01-19T10:11:51.494Z,12.13
2023-01-19T10:15:04.364Z,13.20
2023-01-19T10:17:43.639Z,11.50
2023-01-19T10:20:20.041Z,12.35
2023-01-19T10:22:49.070Z,12.55
2023-01-19T10:25:20.167Z,11.65
2023-01-19T10:27:47.176Z,11.27
2023-01-19T10:30:22.587Z,12.45
2023-01-19T10:32:49.509Z,16.52
2023-01-19T10:35:23.293Z,11.50
2023-01-19T10:37:51.504Z,12.15
2023-01-19T10:40:33.984Z,12.15
2023-01-19T10:43:01.013Z,11.88
2023-01-19T10:45:31.548Z,10.85
2023-01-19T10:48:06.492Z,10.48
2023-01-19T10:50:34.909Z,10.93
2023-01-19T10:53:06.200Z,12.13
2023-01-19T10:55:38.362Z,10.95
2023-01-19T10:58:06.849Z,9.82
2023-01-19T11:00:37.839Z,9.88
2023-01-19T11:03:23.799Z,11.27
2023-01-19T11:05:51.186Z,11.23
2023-01-19T11:08:29.164Z,11.10
2023-01-19T11:10:59.691Z,10.25
2023-01-19T11:13:26.546Z,10.45
2023-01-19T11:16:07.600Z,10.75
2023-01-19T11:18:36.417Z,10.10
2023-01-19T11:21:14.529Z,9.97
2023-01-19T11:23:45.335Z,10.10
2023-01-19T11:26:24.188Z,9.95
2023-01-19T11:28:51.631Z,9.87
2023-01-19T11:31:20.233Z,9.73
2023-01-19T11:33:47.336Z,10.00
2023-01-19T11:36:22.162Z,9.80
2023-01-19T11:38:51.249Z,10.35
2023-01-19T11:41:23.179Z,9.95
2023-01-19T11:43:52.227Z,9.60
2023-01-19T11:46:19.289Z,9.63
2023-01-19T11:48:56.514Z,9.95
2023-01-19T11:51:23.354Z,9.85
2023-01-19T11:53:52.756Z,9.32
2023-01-19T11:56:26.324Z,11.43
2023-01-19T11:58:52.844Z,10.57
2023-01-19T12:01:24.722Z,10.68
2023-01-19T12:04:00.548Z,10.35
2023-01-19T12:06:35.360Z,10.15
2023-01-19T12:09:10.520Z,11.35
2023-01-19T12:11:44.321Z,10.52
2023-01-19T12:14:19.143Z,10.48
2023-01-19T12:16:46.420Z,10.90
2023-01-19T12:19:18.835Z,10.10
2023-01-19T12:21:48.132Z,10.23
2023-01-19T12:24:18.291Z,10.35
2023-01-19T12:26:52.362Z,11.10
2023-01-19T12:29:22.327Z,10.05
2023-01-19T12:32:13.697Z,9.88
2023-01-19T12:34:50.179Z,10.48
2023-01-19T12:37:39.465Z,9.30
2023-01-19T12:40:22.230Z,11.27
2023-01-19T12:43:00.835Z,9.57
2023-01-19T12:45:35.473Z,9.75
2023-01-19T12:48:02.970Z,8.85
2023-01-19T12:50:34.760Z,8.50
2023-01-19T12:53:02.758Z,8.10
2023-01-19T12:55:36.406Z,8.95
2023-01-19T12:58:21.334Z,9.20
2023-01-19T13:00:49.957Z,9.18
2023-01-19T13:03:16.505Z,8.23
2023-01-19T13:05:42.967Z,9.88
2023-01-19T13:08:09.492Z,9.27
2023-01-19T13:10:54.352Z,8.43
2023-01-19T13:13:36.435Z,8.63
2023-01-19T13:16:18.420Z,8.70
2023-01-19T13:18:59.186Z,8.27
2023-01-19T13:21:34.486Z,9.13
2023-01-19T13:24:03.542Z,8.63
2023-01-19T13:26:34.999Z,8.70
2023-01-19T13:29:14.493Z,7.53
2023-01-19T13:32:02.843Z,8.50
2023-01-19T13:34:31.853Z,8.35
2023-01-19T13:36:59.566Z,7.13
2023-01-19T13:39:31.069Z,8.10
2023-01-19T13:42:01.139Z,8.55
2023-01-19T13:44:30.258Z,9.23
2023-01-19T13:46:57.548Z,11.73
2023-01-19T13:49:33.938Z,8.57
2023-01-19T13:52:17.196Z,7.13
2023-01-19T13:54:55.181Z,7.63
2023-01-19T13:57:29.271Z,7.80
2023-01-19T14:00:05.056Z,7.00
2023-01-19T14:03:01.657Z,9.90
2023-01-19T14:05:29.919Z,8.10
2023-01-19T14:08:00.693Z,6.95
2023-01-19T14:10:28.676Z,6.22
2023-01-19T14:13:16.251Z,5.70
2023-01-19T14:15:43.383Z,5.40
2023-01-19T14:18:25.490Z,5.43
2023-01-19T14:21:13.920Z,6.40
2023-01-19T14:24:09.076Z,5.47
2023-01-19T14:26:51.932Z,5.35
2023-01-19T14:29:29.355Z,5.68
2023-01-19T14:32:12.721Z,5.40
2023-01-19T14:34:51.032Z,5.80
2023-01-19T14:37:30.182Z,5.25
2023-01-19T14:40:13.185Z,5.57
2023-01-19T14:42:48.243Z,5.25
2023-01-19T14:45:28.335Z,6.15
2023-01-19T14:47:59.494Z,5.55
2023-01-19T14:50:30.277Z,5.43
2023-01-19T14:53:05.605Z,5.60
2023-01-19T14:55:36.601Z,5.03
2023-01-19T14:58:09.932Z,4.93
2023-01-19T15:00:36.530Z,5.00
2023-01-19T15:03:03.095Z,5.22
2023-01-19T15:05:29.690Z,5.15
2023-01-19T15:07:56.398Z,5.03
2023-01-19T15:10:24.131Z,5.25
2023-01-19T15:12:52.171Z,5.00
2023-01-19T15:15:22.828Z,5.55
2023-01-19T15:17:50.070Z,4.85
2023-01-19T15:20:19.475Z,5.35
2023-01-19T15:22:46.526Z,5.30
2023-01-19T15:25:18.177Z,5.07
2023-01-19T15:27:45.682Z,5.60
2023-01-19T15:30:14.597Z,6.07
2023-01-19T15:32:43.791Z,5.57
2023-01-19T15:35:18.330Z,5.30
2023-01-19T15:37:45.667Z,6.10
2023-01-19T15:40:12.873Z,4.95
2023-01-19T15:42:39.716Z,6.22
2023-01-19T15:45:36.128Z,5.50
2023-01-19T15:48:08.369Z,5.03
2023-01-19T15:50:41.324Z,5.13
2023-01-19T15:53:13.096Z,5.43
2023-01-19T15:55:39.686Z,7.43
2023-01-19T15:58:07.931Z,5.50
2023-01-19T16:00:35.005Z,5.28
2023-01-19T16:03:02.548Z,6.47
2023-01-19T16:05:41.878Z,6.10
2023-01-19T16:08:08.755Z,6.57
2023-01-19T16:10:35.563Z,6.82
2023-01-19T16:13:03.733Z,5.63
2023-01-19T16:15:30.335Z,7.10
2023-01-19T16:17:56.845Z,5.30
2023-01-19T16:20:23.361Z,5.95
2023-01-19T16:22:49.849Z,4.55
2023-01-19T16:25:16.454Z,4.30
2023-01-19T16:27:43.061Z,5.22
2023-01-19T16:30:11.915Z,4.82
2023-01-19T16:32:38.798Z,5.32
2023-01-19T16:35:05.805Z,5.55
2023-01-19T16:37:32.347Z,4.85
2023-01-19T16:39:59.569Z,5.38
2023-01-19T16:42:26.206Z,5.55
2023-01-19T16:44:52.998Z,5.45
2023-01-19T16:47:19.645Z,5.68
2023-01-19T16:49:46.205Z,6.22
2023-01-19T16:52:12.810Z,7.40
2023-01-19T16:54:54.770Z,7.28
2023-01-19T16:57:21.424Z,6.40
2023-01-19T16:59:48.137Z,6.50
2023-01-19T17:02:14.777Z,6.70
2023-01-19T17:04:41.314Z,8.23
2023-01-19T17:07:10.552Z,9.68
2023-01-19T17:09:37.199Z,9.23
2023-01-19T17:12:04.102Z,10.23
2023-01-19T17:14:33.639Z,10.70
2023-01-19T17:17:20.384Z,9.20
2023-01-19T17:19:46.969Z,9.98
2023-01-19T17:22:14.319Z,10.20
2023-01-19T17:24:42.357Z,10.43
2023-01-19T17:27:10.312Z,10.85
2023-01-19T17:29:36.923Z,9.98
2023-01-19T17:32:03.839Z,9.52
2023-01-19T17:34:30.409Z,8.35
2023-01-19T17:37:03.076Z,9.35
2023-01-19T17:39:30.034Z,8.48
2023-01-19T17:41:56.568Z,10.25
2023-01-19T17:44:28.860Z,9.18
2023-01-19T17:46:56.336Z,10.73
2023-01-19T17:49:23.378Z,11.50
2023-01-19T17:51:51.904Z,10.68
2023-01-19T17:54:18.385Z,27.85
2023-01-19T17:56:45.057Z,26.50
2023-01-19T17:59:11.553Z,13.00
2023-01-19T18:01:42.668Z,12.52
2023-01-19T18:04:09.455Z,12.55
2023-01-19T18:06:37.374Z,13.50
2023-01-19T18:09:04.911Z,19.17
2023-01-19T18:11:31.483Z,26.85
2023-01-19T18:13:58.508Z,29.35
2023-01-19T18:16:46.493Z,13.10
2023-01-19T18:19:13.120Z,33.22
2023-01-19T18:21:39.658Z,10.50
2023-01-19T18:24:06.478Z,18.95
2023-01-19T18:26:37.913Z,8.80
2023-01-19T18:29:04.531Z,9.52
2023-01-19T18:31:31.377Z,10.43
2023-01-19T18:33:58.019Z,9.98
2023-01-19T18:36:27.605Z,10.07
2023-01-19T18:38:54.306Z,10.38
2023-01-19T18:41:21.900Z,14.88
2023-01-19T18:43:48.730Z,16.90
2023-01-19T18:46:19.084Z,13.23
2023-01-19T18:48:45.677Z,11.63
2023-01-19T18:51:14.369Z,12.27
2023-01-19T18:53:41.102Z,11.10
2023-01-19T18:56:08.199Z,10.20
2023-01-19T18:58:38.372Z,11.73
2023-01-19T19:01:31.544Z,12.43
2023-01-19T19:03:59.330Z,13.18
2023-01-19T19:06:27.178Z,12.10
2023-01-19T19:08:55.735Z,20.90
2023-01-19T19:11:23.808Z,13.13
2023-01-19T19:13:54.819Z,19.02
2023-01-19T19:16:21.609Z,11.43
2023-01-19T19:18:51.175Z,10.50
2023-01-19T19:21:19.276Z,11.27
2023-01-19T19:23:51.060Z,11.77
2023-01-19T19:26:17.644Z,11.98
2023-01-19T19:28:45.721Z,12.60
2023-01-19T19:31:14.606Z,12.27
2023-01-19T19:33:44.409Z,13.52
2023-01-19T19:38:41.172Z,12.13
2023-01-19T19:41:09.128Z,11.93
2023-01-19T19:43:36.634Z,13.27
2023-01-19T19:46:09.277Z,12.25
2023-01-19T19:48:39.060Z,13.43
2023-01-19T19:51:18.110Z,12.80
2023-01-19T19:53:46.220Z,13.13
2023-01-19T19:56:13.483Z,11.43
2023-01-19T19:58:41.961Z,11.30
2023-01-19T20:01:14.581Z,11.65
2023-01-19T20:03:42.079Z,11.82
2023-01-19T20:06:11.067Z,11.63
2023-01-19T20:08:37.778Z,11.40
2023-01-19T20:11:06.499Z,13.57
2023-01-19T20:13:35.071Z,13.40
2023-01-19T20:16:11.913Z,13.52
2023-01-19T20:18:40.565Z,15.43
2023-01-19T20:21:12.714Z,13.73
2023-01-19T20:23:39.878Z,13.25
2023-01-19T20:26:07.993Z,13.25
2023-01-19T20:28:35.493Z,12.77
2023-01-19T20:31:19.268Z,13.65
2023-01-19T20:33:47.386Z,13.00
2023-01-19T20:36:14.179Z,15.02
2023-01-19T20:38:41.186Z,14.50
2023-01-19T20:41:08.946Z,14.27
2023-01-19T20:43:36.021Z,24.08
2023-01-19T20:46:03.196Z,74.32
2023-01-19T20:48:30.186Z,22.60
2023-01-19T20:51:10.970Z,17.25
2023-01-19T20:53:39.262Z,15.48
2023-01-19T20:56:08.093Z,14.48
2023-01-19T20:58:34.842Z,13.40
2023-01-19T21:01:19.036Z,12.93
2023-01-19T21:03:45.967Z,12.85
2023-01-19T21:06:13.118Z,12.20
2023-01-19T21:08:39.938Z,13.43
2023-01-19T21:11:07.072Z,13.25
2023-01-19T21:13:34.530Z,13.90
2023-01-19T21:16:01.339Z,12.88
2023-01-19T21:18:28.082Z,12.25
2023-01-19T21:20:57.947Z,12.77
2023-01-19T21:23:25.951Z,13.40
2023-01-19T21:25:54.966Z,23.35
2023-01-19T21:28:24.722Z,25.02
2023-01-19T21:33:18.888Z,12.77
2023-01-19T21:35:55.645Z,14.90
2023-01-19T21:38:24.095Z,17.33
2023-01-19T21:40:50.868Z,16.20
2023-01-19T21:43:19.247Z,15.05
2023-01-19T21:45:46.784Z,20.48
2023-01-19T21:48:13.571Z,19.23
2023-01-19T21:50:40.213Z,15.98
2023-01-19T21:53:09.303Z,15.60
2023-01-19T21:55:35.938Z,14.52
2023-01-19T21:58:02.555Z,14.75
